»·PEaware :: N416JK KPHX-P20

N416JK :: KPHX-P20

FLIGHT INFORMATION

Flight Status: Arrived
Operator: Privately registered:
United States
More flights under this callsign
Pilot: John K. (4202)
Aircraft: CESSNA 404 TITAN
(C404)
More flights by this aircraft type
Origin: KPHX Phoenix Sky Harbor Intl
United States
Destination: P20 Avi Suquilla
United States
More flights between these airports :: More routes between these airports
Route: +AVONA V16 BLH PKE
File this flight plan on PilotEdge
Remarks:
Altitude:
(Current/Filed)
6,000ft
Speed:
(Current/Filed)
160kts
Departed: 18-Oct-20 07:39 AM
Arrived: 18-Oct-20 08:53 AM
Distance/Time
Traveled:
121nm/1:13
Distance/Time
To Go:
Arrived

Flight Plot

Page will automatically refresh every two minutes.

Flight plan parsing failed; only flown route is shown


Map Options




Map Legend


Flown Route
Filed Route
Departure Airport
Arrival Airport
Navaid (VOR, NDB)
Fix

Horizontal Profiles

Position Reports

Time Latitude Longitude Heading Altitude Ground
Speed
18-Oct-20 07:24 33.427208 -112.013940 360 1139ft 0kts
18-Oct-20 07:25 33.427208 -112.013940 360 1139ft 0kts
18-Oct-20 07:26 33.427208 -112.013940 360 1139ft 0kts
18-Oct-20 07:27 33.427208 -112.013940 360 1139ft 0kts
18-Oct-20 07:28 33.427208 -112.013940 360 1139ft 0kts
18-Oct-20 07:29 33.427208 -112.013940 360 1139ft 0kts
18-Oct-20 07:31 33.427208 -112.013940 360 1139ft 0kts
18-Oct-20 07:32 33.427208 -112.013940 360 1139ft 0kts
18-Oct-20 07:33 33.427692 -112.017295 270 1139ft 29kts
18-Oct-20 07:34 33.427856 -112.026727 346 1139ft 10kts
18-Oct-20 07:35 33.427913 -112.026746 342 1139ft 0kts
18-Oct-20 07:36 33.427913 -112.026746 342 1139ft 0kts
18-Oct-20 07:37 33.427913 -112.026746 342 1139ft 0kts
18-Oct-20 07:38 33.428672 -112.026821 46 1139ft 21kts
18-Oct-20 07:39 33.428500 -111.997224 104 1855ft 118kts
18-Oct-20 07:40 33.401694 -111.973350 143 3096ft 133kts
18-Oct-20 07:41 33.371712 -111.949277 142 4212ft 97kts
18-Oct-20 07:42 33.350882 -111.936403 141 4815ft 105kts
18-Oct-20 07:43 33.327617 -111.948223 267 6050ft 122kts
18-Oct-20 07:44 33.325418 -112.001451 271 5952ft 183kts
18-Oct-20 07:45 33.324321 -112.062402 271 5972ft 188kts
18-Oct-20 07:45 33.323406 -112.114233 271 5971ft 185kts
18-Oct-20 07:47 33.326955 -112.183584 290 5979ft 180kts
18-Oct-20 07:47 33.338252 -112.230361 287 5980ft 180kts
18-Oct-20 07:49 33.351726 -112.296747 285 5979ft 177kts
18-Oct-20 07:50 33.362966 -112.354121 285 5980ft 177kts
18-Oct-20 07:50 33.372077 -112.400861 285 5979ft 177kts
18-Oct-20 07:52 33.384868 -112.466703 285 5979ft 176kts
18-Oct-20 07:52 33.393804 -112.512854 285 5979ft 174kts
18-Oct-20 07:54 33.406514 -112.578482 285 5988ft 172kts
18-Oct-20 07:54 33.415245 -112.623814 284 5988ft 171kts
18-Oct-20 07:55 33.425766 -112.677960 284 5954ft 172kts
18-Oct-20 07:56 33.436353 -112.732544 284 5953ft 171kts
18-Oct-20 07:57 33.446892 -112.787536 284 5953ft 167kts
18-Oct-20 07:58 33.455263 -112.841271 277 5953ft 168kts
18-Oct-20 07:59 33.459719 -112.895945 277 5953ft 167kts
18-Oct-20 08:00 33.464110 -112.950447 277 5952ft 167kts
18-Oct-20 08:01 33.468563 -113.006085 277 5952ft 167kts
18-Oct-20 08:02 33.472907 -113.060701 277 5952ft 167kts
18-Oct-20 08:03 33.476419 -113.105017 277 5953ft 168kts
18-Oct-20 08:04 33.480724 -113.159727 277 5952ft 170kts
18-Oct-20 08:05 33.485066 -113.215171 277 5952ft 170kts
18-Oct-20 08:06 33.489473 -113.271657 277 5952ft 170kts
18-Oct-20 08:07 33.493755 -113.327044 277 5960ft 169kts
18-Oct-20 08:08 33.498005 -113.382321 277 5960ft 170kts
18-Oct-20 08:09 33.502253 -113.437625 277 5960ft 170kts
18-Oct-20 08:10 33.506558 -113.494014 277 5960ft 170kts
18-Oct-20 08:11 33.512378 -113.548792 300 5942ft 169kts
18-Oct-20 08:12 33.522260 -113.601651 275 5960ft 170kts
18-Oct-20 08:13 33.524955 -113.657112 275 5961ft 170kts
18-Oct-20 08:14 33.528046 -113.712616 275 5962ft 170kts
18-Oct-20 08:15 33.531071 -113.769567 275 5920ft 173kts
18-Oct-20 08:16 33.534020 -113.826055 275 5907ft 172kts
18-Oct-20 08:17 33.536923 -113.882331 275 5907ft 172kts
18-Oct-20 08:18 33.539775 -113.938171 275 5971ft 171kts
18-Oct-20 08:19 33.543732 -113.995126 276 5971ft 172kts
18-Oct-20 08:20 33.547741 -114.051204 276 5970ft 172kts
18-Oct-20 08:21 33.551724 -114.107291 276 5970ft 172kts
18-Oct-20 08:22 33.555669 -114.163211 276 5970ft 172kts
18-Oct-20 08:23 33.559612 -114.219471 276 5970ft 171kts
18-Oct-20 08:24 33.563640 -114.276474 275 5970ft 173kts
18-Oct-20 08:25 33.567513 -114.333256 276 5970ft 174kts
18-Oct-20 08:26 33.571418 -114.390006 276 5970ft 173kts
18-Oct-20 08:27 33.575273 -114.446582 276 5970ft 173kts
18-Oct-20 08:28 33.579180 -114.504202 276 5969ft 173kts
18-Oct-20 08:29 33.583002 -114.560888 276 5969ft 173kts
18-Oct-20 08:30 33.586791 -114.617440 276 5969ft 173kts
18-Oct-20 08:31 33.590640 -114.673579 276 5970ft 170kts
18-Oct-20 08:32 33.594493 -114.729821 276 5971ft 169kts
18-Oct-20 08:33 33.625572 -114.755011 3 5971ft 173kts
18-Oct-20 08:34 33.671917 -114.748202 3 5971ft 170kts
18-Oct-20 08:35 33.716945 -114.741314 3 5969ft 162kts
18-Oct-20 08:36 33.760514 -114.734615 3 5972ft 159kts
18-Oct-20 08:37 33.803810 -114.727938 2 5970ft 156kts
18-Oct-20 08:38 33.846118 -114.721597 2 5970ft 156kts
18-Oct-20 08:39 33.877678 -114.691711 63 5732ft 175kts
18-Oct-20 08:40 33.894507 -114.636793 65 4998ft 164kts
18-Oct-20 08:41 33.909147 -114.588412 64 5006ft 147kts
18-Oct-20 08:42 33.922725 -114.543467 64 5007ft 144kts
18-Oct-20 08:43 33.936617 -114.497393 64 5008ft 152kts
18-Oct-20 08:44 33.952519 -114.444703 66 3903ft 189kts
18-Oct-20 08:45 33.968662 -114.390616 66 3826ft 146kts
18-Oct-20 08:46 33.995197 -114.360046 24 3211ft 149kts
18-Oct-20 08:47 34.029962 -114.338780 24 2418ft 124kts
18-Oct-20 08:48 34.058972 -114.321534 24 2218ft 124kts
18-Oct-20 08:49 34.088220 -114.304283 24 1606ft 103kts
18-Oct-20 08:50 34.114227 -114.288903 25 1076ft 106kts
18-Oct-20 08:51 34.139464 -114.273994 27 582ft 96kts
18-Oct-20 08:52 34.151168 -114.267638 296 456ft 14kts
18-Oct-20 08:53 34.152957 -114.270799 346 456ft 9kts
18-Oct-20 08:54 34.153174 -114.270958 300 457ft 0kts

Navigation Log

Ident Type
Flight plan parsing failed, navigation log unavailable